sensor_id;sensor_type;location;lat;lon;timestamp;pressure;altitude;pressure_sealevel;temperature;humidity
65832;BME280;52593;42.648;23.332;2023-05-16T00:00:06;94264.44;;;12.08;100.00
65832;BME280;52593;42.648;23.332;2023-05-16T00:02:36;94262.97;;;12.06;100.00
65832;BME280;52593;42.648;23.332;2023-05-16T00:05:04;94261.34;;;12.11;100.00
65832;BME280;52593;42.648;23.332;2023-05-16T00:07:31;94260.94;;;12.15;100.00
65832;BME280;52593;42.648;23.332;2023-05-16T00:09:57;94257.41;;;12.14;100.00
65832;BME280;52593;42.648;23.332;2023-05-16T00:12:22;94252.91;;;12.15;100.00
65832;BME280;52593;42.648;23.332;2023-05-16T00:14:48;94247.53;;;12.15;100.00
65832;BME280;52593;42.648;23.332;2023-05-16T00:17:14;94250.03;;;12.23;100.00
65832;BME280;52593;42.648;23.332;2023-05-16T00:19:41;94244.25;;;12.19;100.00
65832;BME280;52593;42.648;23.332;2023-05-16T00:22:09;94242.00;;;12.23;100.00
65832;BME280;52593;42.648;23.332;2023-05-16T00:24:35;94251.50;;;12.32;100.00
65832;BME280;52593;42.648;23.332;2023-05-16T00:27:00;94245.75;;;12.35;99.49
65832;BME280;52593;42.648;23.332;2023-05-16T00:29:28;94237.28;;;12.38;99.10
65832;BME280;52593;42.648;23.332;2023-05-16T00:31:53;94246.59;;;12.42;98.73
65832;BME280;52593;42.648;23.332;2023-05-16T00:34:20;94240.59;;;12.40;98.83
65832;BME280;52593;42.648;23.332;2023-05-16T00:36:46;94239.34;;;12.43;98.66
65832;BME280;52593;42.648;23.332;2023-05-16T00:39:12;94235.84;;;12.42;98.29
65832;BME280;52593;42.648;23.332;2023-05-16T00:41:38;94225.94;;;12.43;97.93
65832;BME280;52593;42.648;23.332;2023-05-16T00:44:03;94224.53;;;12.47;97.76
65832;BME280;52593;42.648;23.332;2023-05-16T00:46:28;94215.81;;;12.45;97.47
65832;BME280;52593;42.648;23.332;2023-05-16T00:48:54;94220.78;;;12.48;97.48
65832;BME280;52593;42.648;23.332;2023-05-16T00:51:19;94201.59;;;12.44;97.47
65832;BME280;52593;42.648;23.332;2023-05-16T00:53:45;94208.41;;;12.47;97.25
65832;BME280;52593;42.648;23.332;2023-05-16T00:56:10;94209.84;;;12.49;96.92
65832;BME280;52593;42.648;23.332;2023-05-16T00:58:36;94203.25;;;12.52;96.95
65832;BME280;52593;42.648;23.332;2023-05-16T01:01:02;94204.91;;;12.53;96.84
65832;BME280;52593;42.648;23.332;2023-05-16T01:03:32;94201.78;;;12.49;96.81
65832;BME280;52593;42.648;23.332;2023-05-16T01:05:57;94199.97;;;12.50;96.63
65832;BME280;52593;42.648;23.332;2023-05-16T01:08:23;94201.38;;;12.46;97.10
65832;BME280;52593;42.648;23.332;2023-05-16T01:11:13;94205.72;;;12.47;96.84
65832;BME280;52593;42.648;23.332;2023-05-16T01:14:01;94201.38;;;12.46;97.23
65832;BME280;52593;42.648;23.332;2023-05-16T01:19:38;94195.19;;;12.45;96.78
65832;BME280;52593;42.648;23.332;2023-05-16T01:27:19;94186.94;;;12.47;96.95
65832;BME280;52593;42.648;23.332;2023-05-16T01:29:45;94179.09;;;12.45;96.88
65832;BME280;52593;42.648;23.332;2023-05-16T01:32:10;94175.56;;;12.45;96.71
65832;BME280;52593;42.648;23.332;2023-05-16T01:34:38;94180.53;;;12.48;96.50
65832;BME280;52593;42.648;23.332;2023-05-16T01:37:16;94173.31;;;12.48;96.63
65832;BME280;52593;42.648;23.332;2023-05-16T01:39:55;94171.88;;;12.46;96.71
65832;BME280;52593;42.648;23.332;2023-05-16T01:42:23;94158.25;;;12.47;96.95
65832;BME280;52593;42.648;23.332;2023-05-16T01:44:59;94158.25;;;12.41;96.85
65832;BME280;52593;42.648;23.332;2023-05-16T01:47:29;94155.13;;;12.37;97.25
65832;BME280;52593;42.648;23.332;2023-05-16T01:50:02;94158.03;;;12.36;97.39
65832;BME280;52593;42.648;23.332;2023-05-16T01:52:34;94155.34;;;12.36;97.36
65832;BME280;52593;42.648;23.332;2023-05-16T01:55:03;94160.09;;;12.34;97.42
65832;BME280;52593;42.648;23.332;2023-05-16T01:57:29;94144.59;;;12.29;98.15
65832;BME280;52593;42.648;23.332;2023-05-16T01:59:56;94159.47;;;12.31;97.82
65832;BME280;52593;42.648;23.332;2023-05-16T02:02:22;94152.66;;;12.29;98.00
65832;BME280;52593;42.648;23.332;2023-05-16T02:04:48;94151.22;;;12.33;97.67
65832;BME280;52593;42.648;23.332;2023-05-16T02:07:14;94145.41;;;12.29;97.90
65832;BME280;52593;42.648;23.332;2023-05-16T02:09:40;94147.09;;;12.30;97.67
65832;BME280;52593;42.648;23.332;2023-05-16T02:12:05;94148.53;;;12.33;97.22
65832;BME280;52593;42.648;23.332;2023-05-16T02:14:31;94155.94;;;12.31;97.32
65832;BME280;52593;42.648;23.332;2023-05-16T02:16:56;94142.34;;;12.32;96.97
65832;BME280;52593;42.648;23.332;2023-05-16T02:19:22;94142.13;;;12.34;96.95
65832;BME280;52593;42.648;23.332;2023-05-16T02:21:47;94140.69;;;12.31;96.92
65832;BME280;52593;42.648;23.332;2023-05-16T02:24:13;94130.16;;;12.37;96.38
65832;BME280;52593;42.648;23.332;2023-05-16T02:26:38;94128.53;;;12.42;95.93
65832;BME280;52593;42.648;23.332;2023-05-16T02:29:04;94132.44;;;12.40;95.62
65832;BME280;52593;42.648;23.332;2023-05-16T02:31:31;94134.50;;;12.38;96.34
65832;BME280;52593;42.648;23.332;2023-05-16T02:33:58;94140.50;;;12.33;96.57
65832;BME280;52593;42.648;23.332;2023-05-16T02:36:24;94139.66;;;12.32;96.79
65832;BME280;52593;42.648;23.332;2023-05-16T02:38:50;94135.75;;;12.35;96.53
65832;BME280;52593;42.648;23.332;2023-05-16T02:41:15;94149.16;;;12.35;96.61
65832;BME280;52593;42.648;23.332;2023-05-16T02:43:41;94148.13;;;12.36;96.27
65832;BME280;52593;42.648;23.332;2023-05-16T02:46:31;94140.91;;;12.43;95.58
65832;BME280;52593;42.648;23.332;2023-05-16T02:48:57;94144.22;;;12.45;95.28
65832;BME280;52593;42.648;23.332;2023-05-16T02:51:25;94134.72;;;12.43;95.38
65832;BME280;52593;42.648;23.332;2023-05-16T02:53:51;94130.97;;;12.37;96.15
65832;BME280;52593;42.648;23.332;2023-05-16T02:56:17;94132.66;;;12.38;96.08
65832;BME280;52593;42.648;23.332;2023-05-16T02:58:46;94122.94;;;12.37;96.25
65832;BME280;52593;42.648;23.332;2023-05-16T03:01:12;94123.56;;;12.39;95.76
65832;BME280;52593;42.648;23.332;2023-05-16T03:03:37;94116.75;;;12.43;95.34
65832;BME280;52593;42.648;23.332;2023-05-16T03:06:02;94125.03;;;12.48;95.15
65832;BME280;52593;42.648;23.332;2023-05-16T03:08:28;94121.72;;;12.53;94.95
65832;BME280;52593;42.648;23.332;2023-05-16T03:10:53;94122.34;;;12.55;94.57
65832;BME280;52593;42.648;23.332;2023-05-16T03:13:19;94136.81;;;12.54;94.53
65832;BME280;52593;42.648;23.332;2023-05-16T03:15:44;94125.88;;;12.56;94.81
65832;BME280;52593;42.648;23.332;2023-05-16T03:18:10;94126.88;;;12.55;95.09
65832;BME280;52593;42.648;23.332;2023-05-16T03:20:36;94128.31;;;12.51;95.42
65832;BME280;52593;42.648;23.332;2023-05-16T03:23:02;94122.53;;;12.54;95.53
65832;BME280;52593;42.648;23.332;2023-05-16T03:25:27;94129.97;;;12.52;95.53
65832;BME280;52593;42.648;23.332;2023-05-16T03:27:53;94127.28;;;12.52;95.24
65832;BME280;52593;42.648;23.332;2023-05-16T03:30:18;94123.81;;;12.51;94.84
65832;BME280;52593;42.648;23.332;2023-05-16T03:32:44;94129.16;;;12.51;95.18
65832;BME280;52593;42.648;23.332;2023-05-16T03:35:10;94119.25;;;12.52;95.36
65832;BME280;52593;42.648;23.332;2023-05-16T03:37:36;94123.38;;;12.47;95.78
65832;BME280;52593;42.648;23.332;2023-05-16T03:40:01;94112.44;;;12.49;95.69
65832;BME280;52593;42.648;23.332;2023-05-16T03:42:29;94116.34;;;12.53;95.13
65832;BME280;52593;42.648;23.332;2023-05-16T03:44:56;94111.19;;;12.52;95.41
65832;BME280;52593;42.648;23.332;2023-05-16T03:47:21;94113.44;;;12.48;95.50
65832;BME280;52593;42.648;23.332;2023-05-16T03:49:47;94116.34;;;12.46;95.18
65832;BME280;52593;42.648;23.332;2023-05-16T03:52:12;94115.91;;;12.49;95.22
65832;BME280;52593;42.648;23.332;2023-05-16T03:54:38;94114.28;;;12.55;94.38
65832;BME280;52593;42.648;23.332;2023-05-16T03:57:04;94108.94;;;12.62;93.96
65832;BME280;52593;42.648;23.332;2023-05-16T03:59:29;94108.09;;;12.61;93.65
65832;BME280;52593;42.648;23.332;2023-05-16T04:01:55;94106.84;;;12.64;93.56
65832;BME280;52593;42.648;23.332;2023-05-16T04:04:20;94118.84;;;12.68;93.47
65832;BME280;52593;42.648;23.332;2023-05-16T04:06:45;94115.53;;;12.66;93.34
65832;BME280;52593;42.648;23.332;2023-05-16T04:09:11;94111.00;;;12.66;93.76
65832;BME280;52593;42.648;23.332;2023-05-16T04:11:36;94111.81;;;12.74;92.99
65832;BME280;52593;42.648;23.332;2023-05-16T04:14:02;94123.38;;;12.74;93.24
65832;BME280;52593;42.648;23.332;2023-05-16T04:16:28;94127.50;;;12.77;92.88
65832;BME280;52593;42.648;23.332;2023-05-16T04:18:54;94127.91;;;12.80;92.76
65832;BME280;52593;42.648;23.332;2023-05-16T04:21:20;94124.81;;;12.77;93.06
65832;BME280;52593;42.648;23.332;2023-05-16T04:23:46;94125.25;;;12.80;92.76
65832;BME280;52593;42.648;23.332;2023-05-16T04:26:11;94126.47;;;12.91;91.87
65832;BME280;52593;42.648;23.332;2023-05-16T04:28:37;94120.47;;;12.89;91.87
65832;BME280;52593;42.648;23.332;2023-05-16T04:31:02;94116.53;;;12.92;92.07
65832;BME280;52593;42.648;23.332;2023-05-16T04:33:27;94103.94;;;12.92;91.93
65832;BME280;52593;42.648;23.332;2023-05-16T04:35:53;94110.53;;;12.96;91.50
65832;BME280;52593;42.648;23.332;2023-05-16T04:38:19;94109.09;;;13.00;91.02
65832;BME280;52593;42.648;23.332;2023-05-16T04:40:44;94102.66;;;13.01;91.09
65832;BME280;52593;42.648;23.332;2023-05-16T04:43:10;94100.19;;;13.00;91.23
65832;BME280;52593;42.648;23.332;2023-05-16T04:45:35;94093.16;;;13.06;90.50
65832;BME280;52593;42.648;23.332;2023-05-16T04:48:01;94098.53;;;13.06;90.54
65832;BME280;52593;42.648;23.332;2023-05-16T04:50:26;94101.63;;;13.09;90.12
65832;BME280;52593;42.648;23.332;2023-05-16T04:52:51;94108.66;;;13.10;90.13
65832;BME280;52593;42.648;23.332;2023-05-16T04:55:17;94092.53;;;13.10;90.25
65832;BME280;52593;42.648;23.332;2023-05-16T04:57:42;94096.25;;;13.16;89.46
65832;BME280;52593;42.648;23.332;2023-05-16T05:00:08;94093.56;;;13.16;89.67
65832;BME280;52593;42.648;23.332;2023-05-16T05:02:37;94093.78;;;13.14;89.57
65832;BME280;52593;42.648;23.332;2023-05-16T05:05:03;94097.50;;;13.13;89.59
65832;BME280;52593;42.648;23.332;2023-05-16T05:07:28;94096.47;;;13.14;89.40
65832;BME280;52593;42.648;23.332;2023-05-16T05:09:54;94106.78;;;13.17;89.52
65832;BME280;52593;42.648;23.332;2023-05-16T05:12:22;94104.72;;;13.19;88.91
65832;BME280;52593;42.648;23.332;2023-05-16T05:14:48;94113.81;;;13.18;88.96
65832;BME280;52593;42.648;23.332;2023-05-16T05:17:13;94110.09;;;13.19;89.00
65832;BME280;52593;42.648;23.332;2023-05-16T05:19:39;94106.38;;;13.20;88.75
65832;BME280;52593;42.648;23.332;2023-05-16T05:22:04;94113.63;;;13.20;88.81
65832;BME280;52593;42.648;23.332;2023-05-16T05:24:30;94109.66;;;13.23;88.45
65832;BME280;52593;42.648;23.332;2023-05-16T05:26:55;94109.25;;;13.26;88.58
65832;BME280;52593;42.648;23.332;2023-05-16T05:29:21;94108.81;;;13.29;88.21
65832;BME280;52593;42.648;23.332;2023-05-16T05:31:46;94104.69;;;13.33;88.03
65832;BME280;52593;42.648;23.332;2023-05-16T05:34:12;94097.88;;;13.37;87.50
65832;BME280;52593;42.648;23.332;2023-05-16T05:36:37;94092.50;;;13.37;87.74
65832;BME280;52593;42.648;23.332;2023-05-16T05:39:03;94085.25;;;13.37;88.18
65832;BME280;52593;42.648;23.332;2023-05-16T05:41:28;94089.41;;;13.40;87.75
65832;BME280;52593;42.648;23.332;2023-05-16T05:43:53;94085.06;;;13.39;87.55
65832;BME280;52593;42.648;23.332;2023-05-16T05:46:19;94089.75;;;13.50;87.50
65832;BME280;52593;42.648;23.332;2023-05-16T05:48:44;94090.16;;;13.54;86.93
65832;BME280;52593;42.648;23.332;2023-05-16T05:51:10;94091.59;;;13.56;86.77
65832;BME280;52593;42.648;23.332;2023-05-16T05:53:35;94086.84;;;13.59;86.59
65832;BME280;52593;42.648;23.332;2023-05-16T05:56:01;94090.34;;;13.59;86.98
65832;BME280;52593;42.648;23.332;2023-05-16T05:58:26;94088.91;;;13.56;86.56
65832;BME280;52593;42.648;23.332;2023-05-16T06:00:51;94085.19;;;13.58;86.24
65832;BME280;52593;42.648;23.332;2023-05-16T06:03:17;94080.41;;;13.60;86.21
65832;BME280;52593;42.648;23.332;2023-05-16T06:05:42;94078.13;;;13.63;85.81
65832;BME280;52593;42.648;23.332;2023-05-16T06:08:08;94073.56;;;13.64;85.82
65832;BME280;52593;42.648;23.332;2023-05-16T06:10:33;94079.97;;;13.63;85.47
65832;BME280;52593;42.648;23.332;2023-05-16T06:12:58;94084.72;;;13.67;85.28
65832;BME280;52593;42.648;23.332;2023-05-16T06:15:24;94086.16;;;13.70;85.31
65832;BME280;52593;42.648;23.332;2023-05-16T06:17:50;94082.63;;;13.76;86.69
65832;BME280;52593;42.648;23.332;2023-05-16T06:20:15;94083.84;;;13.73;86.91
65832;BME280;52593;42.648;23.332;2023-05-16T06:22:41;94086.75;;;13.72;86.36
65832;BME280;52593;42.648;23.332;2023-05-16T06:25:07;94096.66;;;13.78;86.35
65832;BME280;52593;42.648;23.332;2023-05-16T06:27:32;94100.41;;;13.77;85.55
65832;BME280;52593;42.648;23.332;2023-05-16T06:29:57;94092.47;;;14.27;89.19
65832;BME280;52593;42.648;23.332;2023-05-16T06:32:23;94090.22;;;14.24;85.96
65832;BME280;52593;42.648;23.332;2023-05-16T06:34:48;94092.56;;;14.39;85.19
65832;BME280;52593;42.648;23.332;2023-05-16T06:37:14;94074.59;;;14.33;84.34
65832;BME280;52593;42.648;23.332;2023-05-16T06:39:39;94072.47;;;14.42;84.62
65832;BME280;52593;42.648;23.332;2023-05-16T06:42:04;94080.56;;;14.42;83.56
65832;BME280;52593;42.648;23.332;2023-05-16T06:44:30;94085.50;;;14.45;84.19
65832;BME280;52593;42.648;23.332;2023-05-16T06:46:55;94072.13;;;14.63;83.45
65832;BME280;52593;42.648;23.332;2023-05-16T06:49:21;94073.13;;;14.69;82.66
65832;BME280;52593;42.648;23.332;2023-05-16T06:51:46;94070.78;;;14.73;82.02
65832;BME280;52593;42.648;23.332;2023-05-16T06:54:11;94059.53;;;14.83;83.41
65832;BME280;52593;42.648;23.332;2023-05-16T06:56:37;94049.09;;;14.68;80.66
65832;BME280;52593;42.648;23.332;2023-05-16T06:59:02;94047.69;;;14.33;82.01
65832;BME280;52593;42.648;23.332;2023-05-16T07:01:28;94062.03;;;14.27;81.97
65832;BME280;52593;42.648;23.332;2023-05-16T07:03:53;94056.38;;;14.35;81.71
65832;BME280;52593;42.648;23.332;2023-05-16T07:06:19;94056.41;;;14.28;81.97
65832;BME280;52593;42.648;23.332;2023-05-16T07:08:44;94066.75;;;14.32;82.35
65832;BME280;52593;42.648;23.332;2023-05-16T07:11:10;94066.31;;;14.35;82.37
65832;BME280;52593;42.648;23.332;2023-05-16T07:13:36;94055.53;;;14.35;82.29
65832;BME280;52593;42.648;23.332;2023-05-16T07:16:01;94042.09;;;14.35;82.39
65832;BME280;52593;42.648;23.332;2023-05-16T07:18:27;94054.22;;;14.44;81.95
65832;BME280;52593;42.648;23.332;2023-05-16T07:20:52;94030.63;;;14.46;82.06
65832;BME280;52593;42.648;23.332;2023-05-16T07:23:18;94039.47;;;14.53;81.50
65832;BME280;52593;42.648;23.332;2023-05-16T07:25:43;94028.50;;;14.55;81.71
65832;BME280;52593;42.648;23.332;2023-05-16T07:28:09;94025.78;;;14.55;81.78
65832;BME280;52593;42.648;23.332;2023-05-16T07:30:34;94027.88;;;14.53;82.06
65832;BME280;52593;42.648;23.332;2023-05-16T07:33:00;94023.69;;;14.57;81.93
65832;BME280;52593;42.648;23.332;2023-05-16T07:35:25;94029.03;;;14.63;81.70
65832;BME280;52593;42.648;23.332;2023-05-16T07:37:51;94038.09;;;14.69;81.73
65832;BME280;52593;42.648;23.332;2023-05-16T07:40:16;94047.41;;;14.73;81.85
65832;BME280;52593;42.648;23.332;2023-05-16T07:42:42;94049.88;;;14.75;81.56
65832;BME280;52593;42.648;23.332;2023-05-16T07:45:09;94046.97;;;14.76;81.52
65832;BME280;52593;42.648;23.332;2023-05-16T07:47:34;94049.25;;;14.73;81.25
65832;BME280;52593;42.648;23.332;2023-05-16T07:50:00;94041.16;;;14.73;81.06
65832;BME280;52593;42.648;23.332;2023-05-16T07:52:25;94044.78;;;14.85;80.65
65832;BME280;52593;42.648;23.332;2023-05-16T07:54:51;94042.75;;;14.80;80.57
65832;BME280;52593;42.648;23.332;2023-05-16T07:57:17;94049.13;;;14.86;80.67
65832;BME280;52593;42.648;23.332;2023-05-16T07:59:43;94039.34;;;14.92;80.00
65832;BME280;52593;42.648;23.332;2023-05-16T08:02:09;94047.94;;;15.01;79.78
65832;BME280;52593;42.648;23.332;2023-05-16T08:04:35;94056.19;;;15.06;80.04
65832;BME280;52593;42.648;23.332;2023-05-16T08:07:01;94037.88;;;15.14;79.02
65832;BME280;52593;42.648;23.332;2023-05-16T08:09:26;94045.19;;;15.26;78.64
65832;BME280;52593;42.648;23.332;2023-05-16T08:11:51;94038.97;;;15.44;77.62
65832;BME280;52593;42.648;23.332;2023-05-16T08:14:17;94036.09;;;15.57;76.95
65832;BME280;52593;42.648;23.332;2023-05-16T08:16:43;94029.84;;;15.75;76.81
65832;BME280;52593;42.648;23.332;2023-05-16T08:19:08;94021.03;;;15.86;75.59
65832;BME280;52593;42.648;23.332;2023-05-16T08:21:34;94028.75;;;15.83;76.06
65832;BME280;52593;42.648;23.332;2023-05-16T08:23:59;94033.31;;;15.82;76.14
65832;BME280;52593;42.648;23.332;2023-05-16T08:26:24;94024.66;;;15.92;76.18
65832;BME280;52593;42.648;23.332;2023-05-16T08:28:50;94026.59;;;16.03;75.05
65832;BME280;52593;42.648;23.332;2023-05-16T08:31:15;94032.38;;;16.19;74.52
65832;BME280;52593;42.648;23.332;2023-05-16T08:33:41;94029.22;;;16.22;74.83
65832;BME280;52593;42.648;23.332;2023-05-16T08:36:08;94029.47;;;16.20;74.66
65832;BME280;52593;42.648;23.332;2023-05-16T08:38:34;94024.53;;;16.29;74.19
65832;BME280;52593;42.648;23.332;2023-05-16T08:40:59;94033.13;;;16.38;73.62
65832;BME280;52593;42.648;23.332;2023-05-16T08:43:24;94033.03;;;16.56;72.57
65832;BME280;52593;42.648;23.332;2023-05-16T08:45:50;94025.66;;;16.64;71.92
65832;BME280;52593;42.648;23.332;2023-05-16T08:48:16;94017.66;;;16.81;71.50
65832;BME280;52593;42.648;23.332;2023-05-16T08:50:43;94019.31;;;16.82;71.95
65832;BME280;52593;42.648;23.332;2023-05-16T08:53:10;94008.50;;;17.05;70.97
65832;BME280;52593;42.648;23.332;2023-05-16T08:55:36;94014.97;;;17.16;69.61
65832;BME280;52593;42.648;23.332;2023-05-16T08:58:02;94017.16;;;17.31;69.30
65832;BME280;52593;42.648;23.332;2023-05-16T09:00:28;94020.09;;;17.41;68.87
65832;BME280;52593;42.648;23.332;2023-05-16T09:02:55;94015.34;;;17.48;68.75
65832;BME280;52593;42.648;23.332;2023-05-16T09:05:22;94012.16;;;17.52;68.45
65832;BME280;52593;42.648;23.332;2023-05-16T09:07:48;94016.44;;;17.47;67.68
65832;BME280;52593;42.648;23.332;2023-05-16T09:10:13;94018.19;;;17.54;67.75
65832;BME280;52593;42.648;23.332;2023-05-16T09:12:39;94009.22;;;17.53;67.86
65832;BME280;52593;42.648;23.332;2023-05-16T09:15:07;94000.34;;;17.70;67.88
65832;BME280;52593;42.648;23.332;2023-05-16T09:17:37;94010.19;;;17.47;67.82
65832;BME280;52593;42.648;23.332;2023-05-16T09:20:11;94006.22;;;17.38;67.80
65832;BME280;52593;42.648;23.332;2023-05-16T09:22:37;93992.75;;;17.26;68.03
65832;BME280;52593;42.648;23.332;2023-05-16T09:25:03;93994.03;;;17.23;68.51
65832;BME280;52593;42.648;23.332;2023-05-16T09:27:30;94000.13;;;17.31;68.90
65832;BME280;52593;42.648;23.332;2023-05-16T09:29:57;94003.19;;;17.22;68.73
65832;BME280;52593;42.648;23.332;2023-05-16T09:32:23;93996.50;;;17.25;69.18
65832;BME280;52593;42.648;23.332;2023-05-16T09:34:49;93998.03;;;17.21;69.26
65832;BME280;52593;42.648;23.332;2023-05-16T09:37:16;93996.59;;;17.30;69.42
65832;BME280;52593;42.648;23.332;2023-05-16T09:39:50;93994.59;;;17.37;69.17
65832;BME280;52593;42.648;23.332;2023-05-16T09:42:17;93995.91;;;17.23;69.71
65832;BME280;52593;42.648;23.332;2023-05-16T09:44:50;93993.22;;;17.23;69.77
65832;BME280;52593;42.648;23.332;2023-05-16T09:47:17;93995.53;;;17.31;69.62
65832;BME280;52593;42.648;23.332;2023-05-16T09:49:44;93983.44;;;17.22;69.78
65832;BME280;52593;42.648;23.332;2023-05-16T09:52:10;93986.63;;;17.19;70.11
65832;BME280;52593;42.648;23.332;2023-05-16T09:54:36;93998.50;;;17.18;70.25
65832;BME280;52593;42.648;23.332;2023-05-16T09:57:01;93994.28;;;17.22;69.75
65832;BME280;52593;42.648;23.332;2023-05-16T09:59:28;93989.31;;;17.31;69.95
65832;BME280;52593;42.648;23.332;2023-05-16T10:01:56;93986.47;;;17.37;69.62
65832;BME280;52593;42.648;23.332;2023-05-16T10:04:22;93994.19;;;17.45;69.44
65832;BME280;52593;42.648;23.332;2023-05-16T10:06:49;93999.56;;;17.57;69.81
65832;BME280;52593;42.648;23.332;2023-05-16T10:09:17;94005.59;;;17.76;68.32
65832;BME280;52593;42.648;23.332;2023-05-16T10:11:43;94000.00;;;17.78;68.07
65832;BME280;52593;42.648;23.332;2023-05-16T10:14:10;93994.25;;;17.62;68.75
65832;BME280;52593;42.648;23.332;2023-05-16T10:16:36;94000.03;;;17.66;68.55
65832;BME280;52593;42.648;23.332;2023-05-16T10:19:07;94009.66;;;17.74;68.49
65832;BME280;52593;42.648;23.332;2023-05-16T10:21:33;94004.22;;;17.74;68.72
65832;BME280;52593;42.648;23.332;2023-05-16T10:24:02;94015.00;;;17.86;67.45
65832;BME280;52593;42.648;23.332;2023-05-16T10:26:29;94006.03;;;17.97;67.18
65832;BME280;52593;42.648;23.332;2023-05-16T10:28:56;94000.78;;;17.90;67.89
65832;BME280;52593;42.648;23.332;2023-05-16T10:31:22;93986.38;;;18.02;66.68
65832;BME280;52593;42.648;23.332;2023-05-16T10:33:48;93997.84;;;17.80;66.82
65832;BME280;52593;42.648;23.332;2023-05-16T10:36:15;93987.28;;;17.78;66.94
65832;BME280;52593;42.648;23.332;2023-05-16T10:38:41;93977.94;;;17.86;67.54
65832;BME280;52593;42.648;23.332;2023-05-16T10:41:09;93972.94;;;17.78;67.92
65832;BME280;52593;42.648;23.332;2023-05-16T10:43:35;93962.81;;;18.02;67.48
65832;BME280;52593;42.648;23.332;2023-05-16T10:46:08;93945.75;;;18.52;65.79
65832;BME280;52593;42.648;23.332;2023-05-16T10:48:37;93954.22;;;18.73;65.30
65832;BME280;52593;42.648;23.332;2023-05-16T10:54:04;93940.66;;;19.12;63.76
65832;BME280;52593;42.648;23.332;2023-05-16T10:56:32;93946.84;;;19.30;63.21
65832;BME280;52593;42.648;23.332;2023-05-16T10:58:58;93942.00;;;19.10;63.46
65832;BME280;52593;42.648;23.332;2023-05-16T11:01:27;93950.75;;;18.95;63.23
65832;BME280;52593;42.648;23.332;2023-05-16T11:06:23;93946.63;;;18.75;64.04
65832;BME280;52593;42.648;23.332;2023-05-16T11:14:03;93947.97;;;18.39;65.37
65832;BME280;52593;42.648;23.332;2023-05-16T11:16:29;93950.63;;;18.33;64.73
65832;BME280;52593;42.648;23.332;2023-05-16T11:19:03;93950.63;;;18.33;64.71
65832;BME280;52593;42.648;23.332;2023-05-16T11:24:38;93972.44;;;18.61;64.98
65832;BME280;52593;42.648;23.332;2023-05-16T11:27:04;93982.38;;;18.72;65.61
65832;BME280;52593;42.648;23.332;2023-05-16T11:29:34;93980.59;;;18.61;65.92
65832;BME280;52593;42.648;23.332;2023-05-16T11:32:02;93981.94;;;18.63;65.14
65832;BME280;52593;42.648;23.332;2023-05-16T11:34:34;93974.72;;;18.69;64.57
65832;BME280;52593;42.648;23.332;2023-05-16T11:37:01;93976.94;;;18.72;64.59
65832;BME280;52593;42.648;23.332;2023-05-16T11:39:29;93968.25;;;18.70;64.71
65832;BME280;52593;42.648;23.332;2023-05-16T11:41:54;93980.97;;;18.86;64.44
65832;BME280;52593;42.648;23.332;2023-05-16T11:44:20;93974.31;;;18.77;64.65
65832;BME280;52593;42.648;23.332;2023-05-16T11:46:45;93975.72;;;18.63;65.16
65832;BME280;52593;42.648;23.332;2023-05-16T11:49:12;93959.31;;;18.52;65.80
65832;BME280;52593;42.648;23.332;2023-05-16T11:51:41;93964.22;;;18.56;66.16
65832;BME280;52593;42.648;23.332;2023-05-16T11:54:10;93975.19;;;18.83;65.59
65832;BME280;52593;42.648;23.332;2023-05-16T11:56:38;93971.94;;;18.98;65.41
65832;BME280;52593;42.648;23.332;2023-05-16T11:59:03;93964.19;;;19.29;64.92
65832;BME280;52593;42.648;23.332;2023-05-16T12:01:33;93959.56;;;19.73;62.63
65832;BME280;52593;42.648;23.332;2023-05-16T12:04:00;93945.41;;;19.93;61.82
65832;BME280;52593;42.648;23.332;2023-05-16T12:06:25;93948.94;;;19.94;61.51
65832;BME280;52593;42.648;23.332;2023-05-16T12:08:51;93942.97;;;19.70;62.50
65832;BME280;52593;42.648;23.332;2023-05-16T12:11:17;93931.69;;;19.56;62.26
65832;BME280;52593;42.648;23.332;2023-05-16T12:13:42;93925.72;;;20.08;61.01
65832;BME280;52593;42.648;23.332;2023-05-16T12:16:08;93940.66;;;20.76;59.18
65832;BME280;52593;42.648;23.332;2023-05-16T12:18:36;93945.50;;;20.69;59.12
65832;BME280;52593;42.648;23.332;2023-05-16T12:21:03;93940.66;;;21.18;56.96
65832;BME280;52593;42.648;23.332;2023-05-16T12:23:31;93925.69;;;22.00;54.75
65832;BME280;52593;42.648;23.332;2023-05-16T12:25:57;93920.50;;;22.03;54.40
65832;BME280;52593;42.648;23.332;2023-05-16T12:28:30;93912.84;;;21.85;55.22
65832;BME280;52593;42.648;23.332;2023-05-16T12:30:57;93923.97;;;21.68;55.02
65832;BME280;52593;42.648;23.332;2023-05-16T12:33:23;93924.34;;;21.24;57.29
65832;BME280;52593;42.648;23.332;2023-05-16T12:35:48;93929.28;;;20.79;58.76
65832;BME280;52593;42.648;23.332;2023-05-16T12:38:16;93934.38;;;20.38;60.77
65832;BME280;52593;42.648;23.332;2023-05-16T12:40:43;93930.13;;;20.14;61.72
65832;BME280;52593;42.648;23.332;2023-05-16T12:43:28;93944.91;;;19.74;61.89
65832;BME280;52593;42.648;23.332;2023-05-16T12:45:55;93948.09;;;19.44;62.17
65832;BME280;52593;42.648;23.332;2023-05-16T12:48:22;93939.66;;;19.40;62.44
65832;BME280;52593;42.648;23.332;2023-05-16T12:50:48;93941.47;;;19.35;62.92
65832;BME280;52593;42.648;23.332;2023-05-16T12:53:16;93949.50;;;19.24;63.62
65832;BME280;52593;42.648;23.332;2023-05-16T12:55:42;93942.00;;;19.10;63.99
65832;BME280;52593;42.648;23.332;2023-05-16T12:58:09;93943.03;;;18.86;65.06
65832;BME280;52593;42.648;23.332;2023-05-16T13:00:35;93939.31;;;18.76;65.04
65832;BME280;52593;42.648;23.332;2023-05-16T13:03:02;93941.06;;;18.65;65.70
65832;BME280;52593;42.648;23.332;2023-05-16T13:05:27;93949.13;;;18.60;65.94
65832;BME280;52593;42.648;23.332;2023-05-16T13:07:54;93954.13;;;18.51;65.91